Time;durP1;ratioP1;P1;durP2;ratioP2;P2;SDS_P1;SDS_P2;PMS_P1;PMS_P2;Temp;Humidity;BMP_temperature;BMP_pressure;BME280_temperature;BME280_humidity;BME280_pressure;Samples;Min_cycle;Max_cycle;Signal;HPM_P1;HPM_P2
2022/06/17 00:01:41;;;;;;;3.67;2.40;;;;;;;22.35;61.23;99810.25;5012182;28;20199;-73
2022/06/17 00:04:08;;;;;;;2.43;2.00;;;;;;;22.31;61.41;99809.97;5012456;28;20190;-73
2022/06/17 00:06:39;;;;;;;2.40;2.20;;;;;;;22.29;61.50;99805.91;5012186;28;20190;-74
2022/06/17 00:09:07;;;;;;;2.00;1.90;;;;;;;22.30;62.03;99802.13;5011949;28;20668;-76
2022/06/17 00:11:38;;;;;;;2.77;2.57;;;;;;;22.29;62.03;99795.88;5011687;28;20275;-75
2022/06/17 00:14:11;;;;;;;3.20;2.10;;;;;;;22.28;61.77;99798.84;5012725;28;20233;-75
2022/06/17 00:16:38;;;;;;;2.60;2.40;;;;;;;22.27;61.98;99803.47;5011833;28;20195;-75
2022/06/17 00:19:04;;;;;;;2.83;2.47;;;;;;;22.23;62.29;99799.66;5012050;28;20248;-76
2022/06/17 00:21:33;;;;;;;6.63;2.13;;;;;;;22.17;62.84;99797.97;5012801;28;20198;-75
2022/06/17 00:24:02;;;;;;;2.33;2.20;;;;;;;22.09;63.23;99795.78;5012306;28;20194;-75
2022/06/17 00:26:30;;;;;;;2.67;2.33;;;;;;;22.05;63.40;99791.97;5011693;28;20198;-74
2022/06/17 00:28:56;;;;;;;4.33;2.73;;;;;;;21.99;63.52;99795.75;5013688;28;20204;-74
2022/06/17 00:31:23;;;;;;;2.57;2.30;;;;;;;21.94;63.75;99787.59;5015183;28;20720;-74
2022/06/17 00:33:50;;;;;;;2.57;2.37;;;;;;;21.89;64.62;99789.47;5015326;28;20194;-75
2022/06/17 00:36:19;;;;;;;3.10;2.27;;;;;;;21.78;65.44;99793.16;5016108;28;20228;-75
2022/06/17 00:38:47;;;;;;;3.10;2.33;;;;;;;21.65;65.93;99783.59;5015690;28;20194;-75
2022/06/17 00:41:20;;;;;;;2.83;2.63;;;;;;;21.36;67.25;99790.41;5016028;28;20197;-75
2022/06/17 00:43:48;;;;;;;2.60;2.40;;;;;;;21.23;67.96;99768.41;5015538;28;20190;-76
2022/06/17 00:46:26;;;;;;;4.30;2.50;;;;;;;21.26;68.09;99774.13;5015067;28;20193;-74
2022/06/17 00:49:03;;;;;;;6.80;3.03;;;;;;;21.25;68.16;99777.91;5015729;28;20277;-74
2022/06/17 00:51:37;;;;;;;3.27;2.93;;;;;;;21.22;68.61;99782.97;5014921;28;20210;-74
2022/06/17 00:54:19;;;;;;;5.83;2.90;;;;;;;21.14;68.82;99769.97;5015560;28;20190;-74
2022/06/17 00:56:45;;;;;;;5.60;2.90;;;;;;;21.12;69.08;99778.34;5014942;28;20186;-74
2022/06/17 00:59:15;;;;;;;3.80;3.40;;;;;;;20.97;69.90;99777.34;5014767;28;20194;-75
2022/06/17 01:01:47;;;;;;;5.23;3.10;;;;;;;20.87;70.46;99775.38;5015113;28;20229;-75
2022/06/17 01:04:17;;;;;;;3.67;3.37;;;;;;;20.75;71.22;99772.00;5014807;28;20277;-75
2022/06/17 01:06:53;;;;;;;3.73;3.50;;;;;;;20.61;71.85;99749.16;5014730;28;20209;-74
2022/06/17 01:12:11;;;;;;;3.83;3.40;;;;;;;20.41;74.45;99759.75;5014870;28;20296;-75
2022/06/17 01:14:41;;;;;;;4.07;3.70;;;;;;;20.42;73.41;99762.19;5014791;28;20202;-75
2022/06/17 01:17:11;;;;;;;3.97;3.70;;;;;;;20.44;73.75;99764.66;5014524;28;20198;-75
2022/06/17 01:19:41;;;;;;;4.10;3.70;;;;;;;20.25;73.43;99749.84;5014442;28;20555;-75
2022/06/17 01:22:18;;;;;;;20.27;3.20;;;;;;;20.40;74.05;99760.81;5014281;28;20638;-75
2022/06/17 01:24:48;;;;;;;3.80;3.47;;;;;;;20.46;73.82;99757.13;5015532;28;20277;-75
2022/06/17 01:27:17;;;;;;;8.60;4.10;;;;;;;20.52;74.04;99750.69;5014183;28;20190;-75
2022/06/17 01:29:44;;;;;;;10.10;4.23;;;;;;;20.52;74.01;99745.31;5014776;28;20251;-75
2022/06/17 01:32:13;;;;;;;7.37;4.10;;;;;;;20.50;74.10;99742.06;5014090;28;20222;-74
2022/06/17 01:34:40;;;;;;;4.30;3.70;;;;;;;20.50;73.83;99742.06;5014078;28;20667;-74
2022/06/17 01:37:08;;;;;;;7.80;3.63;;;;;;;20.53;74.16;99755.84;5015107;28;20202;-74
2022/06/17 01:39:35;;;;;;;11.97;4.40;;;;;;;20.55;74.25;99752.91;5014272;28;20194;-74
2022/06/17 01:42:04;;;;;;;5.70;3.73;;;;;;;20.59;74.32;99751.31;5013842;28;20607;-75
2022/06/17 01:44:35;;;;;;;8.63;4.13;;;;;;;20.61;73.92;99751.06;5013838;28;20260;-74
2022/06/17 01:47:07;;;;;;;6.53;3.77;;;;;;;20.62;73.47;99747.28;5014477;28;20198;-74
2022/06/17 01:49:36;;;;;;;3.50;3.27;;;;;;;20.58;73.55;99744.28;5014054;28;20194;-75
2022/06/17 01:52:07;;;;;;;3.70;3.40;;;;;;;20.60;73.74;99742.16;5013973;28;20221;-75
2022/06/17 01:54:39;;;;;;;3.83;3.30;;;;;;;20.58;73.86;99750.50;5013761;28;20194;-75
2022/06/17 01:57:10;;;;;;;9.63;3.70;;;;;;;20.58;73.85;99749.66;5014872;28;20606;-75
2022/06/17 01:59:41;;;;;;;4.10;3.63;;;;;;;20.59;73.83;99751.31;5014795;28;20194;-75
2022/06/17 02:02:11;;;;;;;6.90;3.93;;;;;;;20.61;73.60;99754.56;5014176;28;20578;-74
2022/06/17 02:04:40;;;;;;;3.80;3.47;;;;;;;20.61;73.90;99743.78;5013540;28;20671;-75
2022/06/17 02:07:15;;;;;;;7.03;4.00;;;;;;;20.61;74.00;99754.56;5013735;28;20650;-75
2022/06/17 02:09:41;;;;;;;7.73;3.83;;;;;;;20.58;74.27;99745.09;5014076;28;20248;-74
2022/06/17 02:12:11;;;;;;;9.27;4.13;;;;;;;20.57;74.19;99748.06;5013406;28;20233;-74
2022/06/17 02:14:38;;;;;;;5.03;3.77;;;;;;;20.53;74.20;99750.44;5013891;28;20551;-74
2022/06/17 02:17:05;;;;;;;9.77;4.20;;;;;;;20.52;74.67;99748.00;5013290;28;20241;-73
2022/06/17 02:19:35;;;;;;;4.97;4.13;;;;;;;20.52;74.68;99746.13;5013819;28;20264;-74
2022/06/17 02:22:07;;;;;;;4.73;4.10;;;;;;;20.51;74.30;99757.97;5014314;28;20205;-74
2022/06/17 02:24:34;;;;;;;7.63;4.47;;;;;;;20.44;75.03;99759.25;5013573;28;20658;-75
2022/06/17 02:27:04;;;;;;;9.87;4.20;;;;;;;20.25;75.61;99756.06;5013121;28;20198;-75
2022/06/17 02:29:35;;;;;;;7.37;4.40;;;;;;;20.10;76.38;99757.78;5013058;28;20205;-75
2022/06/17 02:32:05;;;;;;;4.73;4.43;;;;;;;20.01;77.78;99753.84;5014168;28;20206;-75
2022/06/17 02:34:32;;;;;;;9.40;4.57;;;;;;;20.02;77.52;99752.78;5013666;28;20190;-75
2022/06/17 02:37:06;;;;;;;5.80;4.57;;;;;;;19.99;77.55;99754.09;5012891;28;20260;-75
2022/06/17 02:39:36;;;;;;;6.50;4.83;;;;;;;20.04;77.45;99750.63;5013838;28;20264;-76
2022/06/17 02:42:03;;;;;;;8.13;4.40;;;;;;;20.11;77.10;99754.00;5014166;28;20194;-76
2022/06/17 02:44:39;;;;;;;6.53;4.23;;;;;;;20.11;77.15;99754.84;5013085;28;20685;-75
2022/06/17 02:47:07;;;;;;;9.33;4.90;;;;;;;20.17;77.04;99758.38;5012875;28;20189;-75
2022/06/17 02:49:36;;;;;;;13.70;5.13;;;;;;;20.21;77.25;99754.13;5013615;28;20256;-75
2022/06/17 02:52:10;;;;;;;9.47;4.83;;;;;;;20.14;77.64;99758.91;5012981;28;20224;-75
2022/06/17 02:54:41;;;;;;;8.43;5.00;;;;;;;20.17;77.30;99758.38;5013882;28;20604;-75
2022/06/17 02:57:10;;;;;;;10.50;5.40;;;;;;;20.23;77.50;99757.41;5014041;28;20344;-75
2022/06/17 02:59:48;;;;;;;7.97;4.63;;;;;;;20.29;77.01;99759.88;5013170;28;20194;-75
2022/06/17 03:02:24;;;;;;;7.73;5.20;;;;;;;20.27;77.55;99758.50;5013814;28;20548;-75
2022/06/17 03:04:52;;;;;;;7.40;5.43;;;;;;;20.28;77.00;99760.13;5012514;28;20190;-75
2022/06/17 03:07:22;;;;;;;10.60;5.23;;;;;;;20.31;77.19;99765.84;5012785;28;20292;-75
2022/06/17 03:09:50;;;;;;;17.40;5.10;;;;;;;20.39;77.02;99770.00;5012795;28;20544;-75
2022/06/17 03:12:22;;;;;;;7.63;4.53;;;;;;;20.58;76.86;99776.66;5012089;28;20237;-75
2022/06/17 03:14:53;;;;;;;13.10;4.70;;;;;;;20.87;76.00;99780.78;5013164;28;20627;-77
2022/06/17 03:17:23;;;;;;;10.03;5.00;;;;;;;20.97;74.30;99777.34;5013954;28;20198;-75
2022/06/17 03:19:53;;;;;;;4.90;4.57;;;;;;;20.91;74.93;99781.06;5013441;28;20217;-76
2022/06/17 03:22:20;;;;;;;13.37;5.50;;;;;;;20.84;74.97;99775.06;5012733;28;20198;-77
2022/06/17 03:24:52;;;;;;;10.50;5.60;;;;;;;20.86;75.26;99787.22;5012606;28;20214;-76
2022/06/17 03:27:25;;;;;;;5.80;5.30;;;;;;;20.72;75.54;99793.28;5013335;28;20248;-77
2022/06/17 03:29:56;;;;;;;7.73;5.73;;;;;;;20.69;75.73;99789.22;5013314;28;20264;-75
2022/06/17 03:32:28;;;;;;;7.53;6.57;;;;;;;20.44;76.27;99781.66;5013291;28;20302;-76
2022/06/17 03:34:56;;;;;;;7.13;6.47;;;;;;;20.46;75.98;99784.91;5013299;28;20626;-76
2022/06/17 03:37:28;;;;;;;6.60;5.87;;;;;;;20.42;76.45;99791.09;5012190;28;20194;-76
2022/06/17 03:40:00;;;;;;;6.47;5.87;;;;;;;20.46;76.29;99794.91;5012418;28;20248;-76
2022/06/17 03:42:32;;;;;;;10.20;6.20;;;;;;;20.54;75.25;99797.13;5012721;28;20190;-76
2022/06/17 03:45:05;;;;;;;9.37;5.70;;;;;;;20.63;74.53;99796.44;5012283;28;20652;-74
2022/06/17 03:47:41;;;;;;;7.73;5.97;;;;;;;20.70;74.59;99798.94;5012986;28;20248;-74
2022/06/17 03:50:16;;;;;;;8.73;6.27;;;;;;;20.75;74.25;99788.22;5011941;28;20186;-75
2022/06/17 03:52:49;;;;;;;17.60;10.13;;;;;;;20.75;74.92;99798.19;5012039;28;20790;-74
2022/06/17 03:55:18;;;;;;;7.47;6.97;;;;;;;20.85;74.29;99803.69;5012501;28;20269;-74
2022/06/17 03:57:47;;;;;;;7.70;6.87;;;;;;;20.91;74.34;99797.28;5012137;28;20198;-75
2022/06/17 04:00:21;;;;;;;7.00;6.40;;;;;;;21.04;74.34;99797.72;5011892;28;20214;-75
2022/06/17 04:02:50;;;;;;;7.93;7.30;;;;;;;21.56;72.12;99793.25;5012597;28;20630;-75
2022/06/17 04:05:20;;;;;;;9.00;5.80;;;;;;;22.45;67.29;99811.09;5016611;28;20193;-75
2022/06/17 04:07:47;;;;;;;8.93;5.90;;;;;;;23.04;64.04;99812.38;5015730;28;20672;-75
2022/06/17 04:10:16;;;;;;;7.97;5.40;;;;;;;24.01;61.45;99815.63;5016341;28;20201;-74
2022/06/17 04:12:47;;;;;;;3.80;3.53;;;;;;;25.08;58.53;99808.63;5015653;28;20234;-73
2022/06/17 04:15:27;;;;;;;6.30;4.60;;;;;;;26.21;53.40;99824.22;5016196;28;20278;-72
2022/06/17 04:17:54;;;;;;;4.50;4.20;;;;;;;27.04;54.31;99819.09;5016011;28;20262;-71
2022/06/17 04:20:40;;;;;;;6.33;4.23;;;;;;;27.80;50.72;99828.50;5015968;28;20201;-71
2022/06/17 04:23:12;;;;;;;7.97;4.90;;;;;;;28.73;45.38;99839.00;5016056;28;20186;-72
2022/06/17 04:25:44;;;;;;;4.57;4.17;;;;;;;29.34;44.68;99833.78;5015492;28;20221;-72
2022/06/17 04:28:15;;;;;;;4.47;4.10;;;;;;;29.98;44.10;99835.19;5015480;28;20642;-74
2022/06/17 04:30:46;;;;;;;6.83;4.20;;;;;;;30.45;43.15;99829.78;5015447;28;20654;-73
2022/06/17 04:33:24;;;;;;;8.07;4.33;;;;;;;30.73;41.68;99827.59;5015592;28;20210;-74
2022/06/17 04:35:55;;;;;;;11.47;4.40;;;;;;;31.17;39.14;99822.66;5016144;28;20190;-73
2022/06/17 04:38:23;;;;;;;6.20;4.87;;;;;;;31.16;38.20;99810.06;5015275;28;20194;-74
2022/06/17 04:40:55;;;;;;;10.47;5.63;;;;;;;31.46;37.83;99824.75;5012233;28;20623;-73
2022/06/17 04:43:29;;;;;;;8.50;5.13;;;;;;;31.48;38.29;99823.31;5011128;28;20206;-74
2022/06/17 04:46:01;;;;;;;7.50;4.50;;;;;;;31.84;37.50;99815.50;5015234;28;20193;-75
2022/06/17 04:48:27;;;;;;;7.33;5.43;;;;;;;32.03;36.59;99804.13;5014833;28;20186;-72
2022/06/17 04:50:54;;;;;;;5.57;3.93;;;;;;;32.22;36.20;99816.31;5014962;28;20698;-72
2022/06/17 04:53:21;;;;;;;9.30;4.27;;;;;;;32.58;35.02;99824.91;5015002;28;20226;-73
2022/06/17 04:55:49;;;;;;;6.73;4.20;;;;;;;32.68;34.89;99823.72;5015430;28;20633;-72
2022/06/17 04:58:17;;;;;;;6.90;4.20;;;;;;;33.01;34.21;99825.47;5014863;28;20193;-73
2022/06/17 05:00:46;;;;;;;3.80;3.60;;;;;;;32.99;34.49;99829.69;5013554;28;20382;-72
2022/06/17 05:03:15;;;;;;;4.60;3.87;;;;;;;33.32;33.48;99818.75;5014650;28;20285;-72
2022/06/17 05:05:46;;;;;;;4.20;3.60;;;;;;;33.13;33.03;99819.22;5012797;28;20646;-74
2022/06/17 05:08:20;;;;;;;4.73;4.37;;;;;;;33.28;32.81;99824.91;5014954;28;20204;-74
2022/06/17 05:10:50;;;;;;;4.77;3.57;;;;;;;33.38;32.74;99826.47;5015595;28;20209;-74
2022/06/17 05:13:20;;;;;;;12.13;3.77;;;;;;;33.50;32.39;99828.47;5014750;28;20233;-74
2022/06/17 05:15:47;;;;;;;4.63;3.70;;;;;;;33.59;31.68;99824.47;5012426;28;20198;-74
2022/06/17 05:18:17;;;;;;;6.43;3.50;;;;;;;33.53;32.61;99825.03;5014759;28;20194;-74
2022/06/17 05:20:45;;;;;;;3.30;3.10;;;;;;;33.55;32.51;99828.28;5014333;28;20618;-71
2022/06/17 05:23:15;;;;;;;6.50;3.23;;;;;;;33.58;32.38;99819.31;5014216;28;20206;-71
2022/06/17 05:25:45;;;;;;;5.37;3.77;;;;;;;33.43;32.15;99806.97;5014163;28;20209;-71
2022/06/17 05:28:14;;;;;;;7.23;3.60;;;;;;;33.23;32.78;99824.28;5012567;28;20291;-76
2022/06/17 05:30:45;;;;;;;8.63;4.13;;;;;;;33.36;32.27;99819.69;5014509;28;20194;-75
2022/06/17 05:33:14;;;;;;;7.90;3.67;;;;;;;33.06;32.77;99796.91;5005507;28;20330;-76
2022/06/17 05:35:42;;;;;;;5.10;3.40;;;;;;;33.08;32.56;99811.94;5011594;28;20202;-73
2022/06/17 05:38:10;;;;;;;4.10;3.70;;;;;;;33.27;32.22;99814.22;4994785;28;20202;-73
2022/06/17 05:40:38;;;;;;;5.07;3.70;;;;;;;32.99;32.74;99808.47;4996374;28;20202;-73
2022/06/17 05:43:05;;;;;;;5.50;2.70;;;;;;;32.74;33.90;99816.88;5007078;28;20208;-74
2022/06/17 05:45:33;;;;;;;3.60;2.70;;;;;;;32.71;33.81;99807.34;5014247;28;20197;-74
2022/06/17 05:48:02;;;;;;;5.57;3.00;;;;;;;32.76;33.79;99809.91;5014053;28;20209;-72
2022/06/17 05:50:31;;;;;;;3.63;2.70;;;;;;;32.77;33.55;99808.78;5010517;28;20281;-72
2022/06/17 05:53:02;;;;;;;3.77;3.20;;;;;;;32.73;33.76;99798.75;5026880;28;20235;-76
2022/06/17 05:55:32;;;;;;;10.93;2.63;;;;;;;32.87;33.43;99810.34;5033455;28;20190;-75
2022/06/17 05:57:59;;;;;;;4.83;2.37;;;;;;;32.88;33.50;99796.25;5032566;28;20197;-74
2022/06/17 06:00:26;;;;;;;3.23;2.70;;;;;;;32.74;32.74;99805.84;5033563;28;20205;-74
2022/06/17 06:02:57;;;;;;;7.27;2.43;;;;;;;32.59;32.70;99801.75;5033160;28;20201;-74
2022/06/17 06:05:25;;;;;;;5.03;2.83;;;;;;;32.68;32.48;99802.53;5032299;28;20687;-72
2022/06/17 06:07:52;;;;;;;2.50;2.27;;;;;;;32.42;32.85;99793.59;5014044;28;20206;-73
2022/06/17 06:10:21;;;;;;;3.30;2.23;;;;;;;32.28;32.88;99798.50;5013838;28;20205;-74
2022/06/17 06:13:03;;;;;;;3.60;3.03;;;;;;;32.26;33.56;99797.22;5012953;28;20237;-72
2022/06/17 06:15:33;;;;;;;5.90;2.87;;;;;;;32.15;34.08;99791.31;5013395;28;20639;-72
2022/06/17 06:18:00;;;;;;;2.70;2.50;;;;;;;32.10;33.99;99791.47;5013661;28;20222;-73
2022/06/17 06:20:27;;;;;;;3.50;2.87;;;;;;;32.21;33.40;99794.69;5013833;28;20346;-72
2022/06/17 06:22:54;;;;;;;4.17;2.90;;;;;;;31.62;33.75;99782.72;5030421;28;20205;-72
2022/06/17 06:25:22;;;;;;;2.93;2.60;;;;;;;31.41;34.57;99790.06;5032833;28;20194;-73
2022/06/17 06:27:50;;;;;;;6.20;2.90;;;;;;;31.40;34.79;99791.16;5032728;28;20201;-73
2022/06/17 06:30:21;;;;;;;5.77;2.80;;;;;;;30.92;35.04;99790.53;5031644;28;20201;-73
2022/06/17 06:32:53;;;;;;;5.67;2.60;;;;;;;31.08;36.00;99785.34;5023890;28;20228;-72
2022/06/17 06:35:21;;;;;;;4.57;3.67;;;;;;;31.16;35.67;99790.03;5013036;28;20681;-74
2022/06/17 06:37:48;;;;;;;5.20;2.80;;;;;;;30.93;35.37;99789.41;5013719;28;20197;-72
2022/06/17 06:40:16;;;;;;;5.90;2.87;;;;;;;31.10;36.18;99778.41;5007932;28;20191;-72
2022/06/17 06:42:44;;;;;;;6.00;2.83;;;;;;;31.32;35.70;99775.50;4991945;28;20621;-71
2022/06/17 06:45:16;;;;;;;2.90;2.23;;;;;;;31.38;35.93;99779.72;4992884;28;20245;-74
2022/06/17 06:47:44;;;;;;;2.47;2.27;;;;;;;31.47;36.10;99772.25;4993367;28;20272;-73
2022/06/17 06:50:15;;;;;;;6.63;3.00;;;;;;;31.79;34.83;99763.47;5010615;28;20210;-72
2022/06/17 06:52:42;;;;;;;3.37;2.47;;;;;;;31.99;34.49;99760.00;5012791;28;20221;-72
2022/06/17 06:55:10;;;;;;;3.50;2.60;;;;;;;32.13;34.78;99746.03;5013010;28;20653;-72
2022/06/17 06:57:44;;;;;;;6.33;2.77;;;;;;;32.41;33.70;99752.66;5016053;28;20213;-73
2022/06/17 07:00:15;;;;;;;3.73;2.90;;;;;;;32.38;33.03;99743.16;5032797;28;20250;-72
2022/06/17 07:02:42;;;;;;;5.23;2.73;;;;;;;32.19;33.81;99737.25;5032287;28;20221;-72
2022/06/17 07:05:09;;;;;;;5.87;2.80;;;;;;;31.82;33.46;99737.28;5032432;28;20198;-73
2022/06/17 07:07:36;;;;;;;3.87;2.60;;;;;;;31.73;34.75;99725.47;5032473;28;20209;-73
2022/06/17 07:10:03;;;;;;;4.37;2.30;;;;;;;31.92;33.79;99723.97;5031932;28;20254;-71
2022/06/17 07:12:30;;;;;;;5.27;3.20;;;;;;;31.97;34.68;99721.03;5032094;28;20225;-72
2022/06/17 07:14:58;;;;;;;2.70;1.87;;;;;;;32.11;34.23;99718.88;5032211;28;20212;-71
2022/06/17 07:17:25;;;;;;;2.90;2.60;;;;;;;32.14;33.54;99715.44;5032310;28;20194;-71
2022/06/17 07:19:51;;;;;;;10.67;3.17;;;;;;;32.30;33.54;99712.97;5032471;28;20201;-72
2022/06/17 07:22:18;;;;;;;13.57;3.50;;;;;;;32.42;33.56;99716.59;5032044;28;20255;-72
2022/06/17 07:24:45;;;;;;;6.60;2.93;;;;;;;32.23;33.11;99707.97;5032252;28;20201;-72
2022/06/17 07:27:12;;;;;;;6.17;2.70;;;;;;;32.10;34.04;99697.19;5031644;28;20193;-71
2022/06/17 07:29:39;;;;;;;7.30;3.17;;;;;;;32.25;34.18;99700.16;5032102;28;20252;-71
2022/06/17 07:32:07;;;;;;;4.50;3.17;;;;;;;31.84;34.65;99691.00;5028697;28;20637;-70
2022/06/17 07:34:34;;;;;;;8.27;3.00;;;;;;;32.23;34.54;99691.47;5011928;28;20283;-72
2022/06/17 07:39:58;;;;;;;2.80;2.60;;;;;;;32.64;33.16;99691.50;5010899;28;20181;-75
2022/06/17 07:42:26;;;;;;;3.33;2.40;;;;;;;32.67;33.50;99696.31;4994245;28;20194;-74
2022/06/17 07:44:53;;;;;;;3.00;2.90;;;;;;;32.73;32.56;99686.72;5011804;28;20661;-76
2022/06/17 07:47:23;;;;;;;4.30;2.90;;;;;;;32.66;33.51;99694.72;5012052;28;20199;-75
2022/06/17 07:49:51;;;;;;;3.33;3.00;;;;;;;32.53;33.71;99693.03;5012191;28;20652;-71
2022/06/17 07:52:18;;;;;;;5.00;3.10;;;;;;;32.41;33.96;99681.97;5012088;28;20697;-72
2022/06/17 07:54:44;;;;;;;6.53;2.70;;;;;;;32.62;33.22;99682.78;5011805;28;20242;-71
2022/06/17 07:57:13;;;;;;;3.13;2.93;;;;;;;32.81;32.98;99685.88;5011649;28;20204;-69
2022/06/17 07:59:41;;;;;;;3.63;3.30;;;;;;;32.49;33.51;99681.09;5005035;28;20233;-72
2022/06/17 08:02:08;;;;;;;3.87;3.20;;;;;;;32.64;33.31;99685.19;5005283;28;20218;-72
2022/06/17 08:04:38;;;;;;;7.13;3.37;;;;;;;32.78;33.60;99675.50;4992715;28;20243;-72
2022/06/17 08:07:05;;;;;;;7.30;3.37;;;;;;;32.52;34.12;99677.69;5000878;28;20409;-71
2022/06/17 08:09:32;;;;;;;8.60;3.97;;;;;;;32.66;33.45;99678.22;5011684;28;20197;-72
2022/06/17 08:11:59;;;;;;;5.33;3.73;;;;;;;32.44;33.37;99689.56;5011454;28;20202;-71
2022/06/17 08:14:26;;;;;;;5.97;3.50;;;;;;;32.39;33.88;99689.78;5007905;28;20265;-75
2022/06/17 08:16:53;;;;;;;4.07;3.70;;;;;;;32.27;33.61;99686.91;5011733;28;20194;-70
2022/06/17 08:19:19;;;;;;;5.87;3.27;;;;;;;32.43;33.56;99679.72;5011852;28;20284;-70
2022/06/17 08:21:48;;;;;;;23.63;5.00;;;;;;;32.46;32.98;99679.00;5011906;28;20581;-68
2022/06/17 08:24:14;;;;;;;4.20;3.60;;;;;;;32.55;33.06;99677.00;5011940;28;20797;-70
2022/06/17 08:26:41;;;;;;;6.07;3.43;;;;;;;32.40;33.90;99674.06;5011396;28;20202;-71
2022/06/17 08:29:08;;;;;;;3.37;3.10;;;;;;;32.21;33.48;99663.47;5011417;28;20214;-70
2022/06/17 08:31:35;;;;;;;4.43;4.03;;;;;;;31.28;34.67;99670.19;5011428;28;20205;-71
2022/06/17 08:34:02;;;;;;;4.57;3.57;;;;;;;31.21;35.53;99658.91;5011519;28;20221;-73
2022/06/17 08:36:29;;;;;;;4.17;3.47;;;;;;;31.62;34.80;99659.09;5010634;28;20205;-72
2022/06/17 08:39:02;;;;;;;4.90;3.53;;;;;;;31.96;34.24;99658.94;5012300;28;20217;-72
2022/06/17 08:41:32;;;;;;;3.87;3.50;;;;;;;32.41;33.14;99659.97;5010186;28;20193;-71
2022/06/17 08:44:19;;;;;;;3.83;3.47;;;;;;;31.53;33.45;99661.09;5011084;28;20744;-71
2022/06/17 08:47:12;;;;;;;4.67;3.23;;;;;;;32.03;33.27;99667.50;5011969;28;20190;-72
2022/06/17 08:50:06;;;;;;;3.87;3.57;;;;;;;32.47;32.21;99668.81;5014748;28;20263;-71
2022/06/17 08:52:55;;;;;;;3.83;3.33;;;;;;;32.86;30.74;99665.59;5035161;28;20567;-71
2022/06/17 08:55:32;;;;;;;5.07;3.20;;;;;;;33.16;30.79;99659.59;5016777;28;20285;-72
2022/06/17 08:58:01;;;;;;;3.73;3.43;;;;;;;33.14;31.20;99661.91;4999466;28;20197;-71
2022/06/17 09:00:38;;;;;;;5.53;3.23;;;;;;;33.30;31.60;99649.09;5014929;28;20202;-70
2022/06/17 09:03:17;;;;;;;6.72;4.32;;;;;;;33.52;31.47;99660.84;5015288;28;20186;-71
2022/06/17 09:05:52;;;;;;;5.13;3.33;;;;;;;33.59;31.12;99655.59;5015303;28;20247;-72
2022/06/17 09:08:41;;;;;;;15.32;3.75;;;;;;;33.68;31.35;99659.03;5015191;28;20189;-74
2022/06/17 09:11:18;;;;;;;8.00;3.33;;;;;;;33.63;31.49;99651.00;5014759;28;20268;-72
2022/06/17 09:13:59;;;;;;;3.65;3.22;;;;;;;33.36;32.05;99657.97;5015490;28;20222;-72
2022/06/17 09:16:36;;;;;;;8.57;3.88;;;;;;;33.46;31.80;99652.00;5014313;28;20650;-72
2022/06/17 09:19:04;;;;;;;8.57;3.70;;;;;;;33.54;31.57;99650.28;5014065;28;20182;-73
2022/06/17 09:21:37;;;;;;;5.05;3.45;;;;;;;33.60;31.17;99648.94;5014575;28;20260;-72
2022/06/17 09:24:08;;;;;;;6.57;3.70;;;;;;;33.20;32.28;99649.50;5014176;28;20248;-72
2022/06/17 09:26:49;;;;;;;3.63;3.33;;;;;;;32.25;34.20;99645.16;5014205;28;20202;-69
2022/06/17 09:29:24;;;;;;;4.05;3.45;;;;;;;32.76;33.25;99639.28;5014734;28;20189;-70
2022/06/17 09:31:53;;;;;;;3.60;3.40;;;;;;;33.01;32.38;99635.50;5013954;28;20185;-72
2022/06/17 09:34:26;;;;;;;5.30;3.30;;;;;;;33.00;32.37;99639.38;5014036;28;20697;-70
2022/06/17 09:36:59;;;;;;;5.88;4.00;;;;;;;33.19;32.95;99627.81;5014326;28;20631;-71
2022/06/17 09:39:32;;;;;;;4.43;3.72;;;;;;;33.33;32.23;99626.38;5014493;28;20237;-71
2022/06/17 09:42:04;;;;;;;13.15;3.60;;;;;;;33.07;32.65;99628.63;4995401;28;20198;-71
2022/06/17 09:44:35;;;;;;;4.55;3.25;;;;;;;33.09;32.99;99620.84;4994594;28;20203;-70
2022/06/17 09:47:08;;;;;;;4.80;3.67;;;;;;;33.07;32.72;99623.09;4998817;28;20610;-70
2022/06/17 09:49:41;;;;;;;4.68;4.25;;;;;;;33.24;32.13;99628.41;5013316;28;20190;-72
2022/06/17 09:52:14;;;;;;;6.30;4.23;;;;;;;32.84;31.58;99621.91;5014036;28;20252;-70
2022/06/17 09:54:46;;;;;;;5.23;4.07;;;;;;;33.01;32.53;99616.22;5014648;28;20617;-70
2022/06/17 09:57:19;;;;;;;4.50;4.13;;;;;;;33.14;31.86;99609.59;5013701;28;20194;-71
2022/06/17 09:59:50;;;;;;;4.77;4.37;;;;;;;31.89;33.80;99605.66;5030334;28;20208;-71
2022/06/17 10:02:23;;;;;;;6.10;4.63;;;;;;;30.80;36.22;99602.97;5033060;28;20194;-70
2022/06/17 10:04:52;;;;;;;4.30;3.93;;;;;;;29.96;38.19;99596.34;5021722;28;20195;-70
2022/06/17 10:07:29;;;;;;;5.53;4.57;;;;;;;30.63;37.29;99592.81;4994480;28;20290;-69
2022/06/17 10:10:07;;;;;;;5.20;4.27;;;;;;;31.09;35.61;99601.13;4993913;28;20245;-69
2022/06/17 10:13:02;;;;;;;6.73;4.40;;;;;;;31.55;35.06;99595.63;4993653;28;20234;-69
2022/06/17 10:15:38;;;;;;;6.20;4.43;;;;;;;31.62;34.59;99590.44;4993713;28;20273;-69
2022/06/17 10:18:32;;;;;;;6.57;4.27;;;;;;;31.91;33.41;99584.94;4994179;28;20194;-69
2022/06/17 10:21:13;;;;;;;5.63;4.33;;;;;;;31.50;33.40;99589.50;4993917;28;20204;-69
2022/06/17 10:23:50;;;;;;;5.37;4.97;;;;;;;31.34;33.95;99580.22;4993708;28;20186;-71
2022/06/17 10:26:28;;;;;;;4.80;4.50;;;;;;;31.70;33.77;99575.84;5011438;28;20201;-69
2022/06/17 10:29:19;;;;;;;4.83;4.40;;;;;;;31.25;34.27;99577.53;5013168;28;20248;-70
2022/06/17 10:31:48;;;;;;;4.90;4.60;;;;;;;30.43;35.81;99577.03;5013663;28;20183;-70
2022/06/17 10:34:19;;;;;;;7.77;5.17;;;;;;;29.97;36.63;99573.28;5012846;28;20222;-69
2022/06/17 10:36:49;;;;;;;4.70;4.40;;;;;;;30.56;35.48;99569.75;5013771;28;20193;-71
2022/06/17 10:39:19;;;;;;;4.93;4.73;;;;;;;30.92;35.10;99568.25;5012929;28;20190;-70
2022/06/17 10:41:46;;;;;;;5.97;4.87;;;;;;;31.37;34.84;99571.31;5008452;28;20629;-70
2022/06/17 10:44:17;;;;;;;5.33;4.93;;;;;;;31.58;35.51;99559.25;5012633;28;20222;-71
2022/06/17 10:46:48;;;;;;;8.43;5.40;;;;;;;31.43;35.66;99562.56;5013265;28;20182;-69
2022/06/17 10:49:19;;;;;;;5.17;4.80;;;;;;;31.67;34.92;99557.25;5012061;28;20233;-69
2022/06/17 10:51:51;;;;;;;5.33;4.93;;;;;;;32.05;34.19;99562.69;5012965;28;20239;-71
2022/06/17 10:54:24;;;;;;;7.20;4.87;;;;;;;32.31;33.58;99566.88;5023998;28;20271;-68
2022/06/17 10:57:01;;;;;;;5.00;4.70;;;;;;;32.56;33.97;99556.75;5032427;28;20642;-68
2022/06/17 10:59:35;;;;;;;5.10;4.80;;;;;;;32.75;33.19;99546.84;5017895;28;20205;-68
2022/06/17 11:02:03;;;;;;;7.23;4.50;;;;;;;32.81;31.75;99553.78;4993039;28;20647;-69
2022/06/17 11:04:33;;;;;;;5.20;4.70;;;;;;;32.89;32.64;99549.31;4993184;28;20260;-68
2022/06/17 11:07:02;;;;;;;5.87;4.70;;;;;;;33.00;32.40;99548.50;4993118;28;20203;-69
2022/06/17 11:09:35;;;;;;;5.30;4.73;;;;;;;33.01;32.72;99546.56;4993264;28;20200;-69
2022/06/17 11:12:05;;;;;;;19.05;5.93;;;;;;;33.00;32.25;99545.75;4992463;28;20230;-69
2022/06/17 11:14:37;;;;;;;9.43;5.18;;;;;;;32.48;32.81;99555.72;4993327;28;20221;-68
2022/06/17 11:17:12;;;;;;;5.90;4.50;;;;;;;31.87;32.95;99550.19;4993172;28;20187;-69
2022/06/17 11:19:40;;;;;;;4.93;4.53;;;;;;;32.14;33.18;99536.72;4993918;28;20190;-68
2022/06/17 11:22:16;;;;;;;5.27;4.80;;;;;;;32.25;32.77;99546.19;4992568;28;20225;-69
2022/06/17 11:24:43;;;;;;;5.73;5.33;;;;;;;32.10;33.62;99533.03;4992735;28;20265;-68
2022/06/17 11:27:21;;;;;;;5.00;4.70;;;;;;;31.93;33.17;99527.69;4992490;28;20253;-69
2022/06/17 11:29:51;;;;;;;5.20;4.90;;;;;;;31.24;35.28;99515.50;4995386;28;20313;-68
2022/06/17 11:32:33;;;;;;;6.13;4.40;;;;;;;31.63;34.76;99514.28;5012248;28;20225;-69
2022/06/17 11:35:02;;;;;;;5.43;5.07;;;;;;;31.95;34.12;99517.16;5012804;28;20590;-69
2022/06/17 11:37:33;;;;;;;5.90;4.80;;;;;;;32.06;34.07;99515.59;5012724;28;20264;-70
2022/06/17 11:40:13;;;;;;;5.50;5.00;;;;;;;32.30;34.02;99509.47;5009608;28;20195;-70
2022/06/17 11:42:52;;;;;;;5.83;5.47;;;;;;;32.25;34.19;99502.19;4992289;28;20195;-69
2022/06/17 11:45:23;;;;;;;5.13;4.70;;;;;;;31.80;34.72;99500.50;4993049;28;20194;-69
2022/06/17 11:47:55;;;;;;;5.43;5.05;;;;;;;31.89;33.91;99503.97;4992556;28;20724;-69
2022/06/17 11:50:25;;;;;;;5.57;5.07;;;;;;;31.72;34.55;99499.38;5011619;28;20190;-69
2022/06/17 11:53:00;;;;;;;5.70;5.30;;;;;;;32.01;34.44;99488.31;5011689;28;20244;-69
2022/06/17 11:55:31;;;;;;;5.07;4.77;;;;;;;32.12;33.63;99488.72;5012823;28;20209;-69